Time;durP1;ratioP1;P1;durP2;ratioP2;P2;SDS_P1;SDS_P2;PMS_P1;PMS_P2;Temp;Humidity;BMP_temperature;BMP_pressure;BME280_temperature;BME280_humidity;BME280_pressure;Samples;Min_cycle;Max_cycle;Signal;HPM_P1;HPM_P2
2022/12/06 00:01:08;;;;;;;18.17;13.40;;;10.70;60.00;;;;;;5053104;28;20423;-56
2022/12/06 00:03:34;;;;;;;20.00;13.53;;;10.70;59.90;;;;;;5037527;28;20493;-56
2022/12/06 00:06:15;;;;;;;19.90;13.63;;;10.70;59.90;;;;;;5033500;28;20828;-57
2022/12/06 00:08:41;;;;;;;17.10;14.03;;;10.60;60.10;;;;;;5035053;28;20440;-55
2022/12/06 00:11:13;;;;;;;16.40;13.00;;;10.60;60.40;;;;;;5044559;28;20451;-56
2022/12/06 00:13:39;;;;;;;19.07;14.90;;;10.60;60.60;;;;;;5052893;28;20208;-57
2022/12/06 00:16:07;;;;;;;16.90;13.23;;;10.60;60.80;;;;;;5037676;28;20439;-55
2022/12/06 00:18:35;;;;;;;15.77;13.23;;;10.60;60.80;;;;;;5038812;28;20436;-57
2022/12/06 00:21:16;;;;;;;17.97;14.13;;;10.60;60.60;;;;;;5035811;28;20479;-56
2022/12/06 00:23:44;;;;;;;16.00;13.13;;;10.60;60.60;;;;;;5038164;28;20482;-56
2022/12/06 00:26:11;;;;;;;15.93;12.07;;;10.60;60.60;;;;;;5040818;28;20889;-55
2022/12/06 00:28:37;;;;;;;16.30;12.07;;;10.60;60.80;;;;;;5031233;28;20451;-55
2022/12/06 00:31:06;;;;;;;19.13;13.10;;;10.60;60.80;;;;;;5035028;28;20432;-55
2022/12/06 00:33:33;;;;;;;19.20;14.57;;;10.60;60.70;;;;;;5039970;28;20450;-56
2022/12/06 00:36:01;;;;;;;16.80;13.50;;;10.70;60.70;;;;;;5040812;28;20525;-56
2022/12/06 00:38:27;;;;;;;17.30;12.50;;;10.70;60.50;;;;;;5045568;28;20447;-55
2022/12/06 00:41:07;;;;;;;20.07;14.07;;;10.60;60.40;;;;;;5041588;28;20501;-57
2022/12/06 00:43:34;;;;;;;19.40;15.33;;;10.60;60.70;;;;;;5030514;28;20443;-55
2022/12/06 00:46:00;;;;;;;19.27;13.87;;;10.60;60.70;;;;;;5034624;28;20537;-57
2022/12/06 00:48:26;;;;;;;14.60;13.10;;;10.60;60.60;;;;;;5043277;28;20495;-54
2022/12/06 00:50:51;;;;;;;16.50;14.47;;;10.60;60.60;;;;;;5045019;28;20432;-54
2022/12/06 00:53:17;;;;;;;16.40;14.50;;;10.60;60.60;;;;;;5042674;28;20447;-55
2022/12/06 00:55:43;;;;;;;17.40;13.30;;;10.60;60.70;;;;;;5043937;28;20925;-56
2022/12/06 00:58:10;;;;;;;17.00;13.73;;;10.50;60.80;;;;;;5038297;28;20221;-56
2022/12/06 01:00:36;;;;;;;17.67;12.20;;;10.60;61.10;;;;;;5049391;28;20442;-55
2022/12/06 01:03:01;;;;;;;17.77;13.40;;;10.50;61.10;;;;;;5043752;28;20443;-55
2022/12/06 01:05:27;;;;;;;17.03;13.07;;;10.60;61.30;;;;;;5044445;28;20243;-57
2022/12/06 01:07:53;;;;;;;18.23;13.93;;;10.60;61.10;;;;;;5038171;28;20470;-56
2022/12/06 01:10:19;;;;;;;14.27;12.03;;;10.50;60.90;;;;;;5032954;28;20258;-56
2022/12/06 01:12:44;;;;;;;17.90;13.17;;;10.50;60.90;;;;;;5038339;28;20201;-56
2022/12/06 01:15:10;;;;;;;15.87;12.10;;;10.40;61.30;;;;;;5048703;28;20184;-56
2022/12/06 01:17:36;;;;;;;15.20;11.90;;;10.50;61.40;;;;;;5047707;28;20188;-57
2022/12/06 01:20:03;;;;;;;16.10;13.17;;;10.50;61.30;;;;;;5042404;28;20515;-57
2022/12/06 01:22:28;;;;;;;15.50;12.50;;;10.50;61.10;;;;;;5037709;28;20241;-55
2022/12/06 01:24:54;;;;;;;16.63;12.77;;;10.50;60.80;;;;;;5040133;28;20457;-55
2022/12/06 01:27:20;;;;;;;16.73;12.57;;;10.50;60.50;;;;;;5036571;28;20370;-56
2022/12/06 01:29:46;;;;;;;15.77;13.70;;;10.50;60.50;;;;;;5038304;28;20527;-56
2022/12/06 01:32:12;;;;;;;13.23;11.83;;;10.50;60.40;;;;;;5040004;28;20871;-56
2022/12/06 01:34:37;;;;;;;16.17;12.43;;;10.50;60.20;;;;;;5044849;28;20196;-53
2022/12/06 01:37:03;;;;;;;16.00;12.73;;;10.40;60.00;;;;;;5038510;28;20683;-56
2022/12/06 01:39:29;;;;;;;14.30;12.47;;;10.40;60.00;;;;;;5028946;28;20190;-56
2022/12/06 01:41:55;;;;;;;15.63;12.40;;;10.40;59.90;;;;;;5039732;28;20440;-55
2022/12/06 01:44:47;;;;;;;22.10;12.47;;;10.30;59.90;;;;;;5040554;28;20197;-56
2022/12/06 01:47:25;;;;;;;13.83;11.37;;;10.30;60.00;;;;;;5042190;28;20278;-56
2022/12/06 01:50:13;;;;;;;14.50;12.57;;;10.20;60.20;;;;;;5037961;28;20466;-57
2022/12/06 01:52:44;;;;;;;15.90;11.50;;;10.20;61.30;;;;;;5033318;28;20543;-56
2022/12/06 01:55:11;;;;;;;13.57;11.43;;;10.20;60.50;;;;;;5039082;28;20443;-55
2022/12/06 01:57:37;;;;;;;16.40;12.40;;;10.10;60.70;;;;;;5034919;28;20463;-55
2022/12/06 02:00:03;;;;;;;14.30;11.90;;;10.10;61.00;;;;;;5040025;28;20479;-57
2022/12/06 02:02:29;;;;;;;15.90;12.07;;;10.10;60.80;;;;;;5033649;28;20197;-57
2022/12/06 02:04:56;;;;;;;13.90;11.47;;;10.10;60.90;;;;;;5038667;28;20442;-57
2022/12/06 02:07:23;;;;;;;14.03;12.37;;;10.10;60.90;;;;;;5033463;28;20246;-56
2022/12/06 02:09:50;;;;;;;14.23;11.27;;;10.20;61.00;;;;;;5034720;28;20564;-57
2022/12/06 02:12:16;;;;;;;14.00;11.57;;;10.20;60.80;;;;;;5039806;28;20522;-56
2022/12/06 02:14:47;;;;;;;13.20;11.70;;;10.20;60.80;;;;;;5039055;28;20721;-57
2022/12/06 02:17:47;;;;;;;17.50;12.57;;;10.10;60.80;;;;;;5035125;28;20216;-55
2022/12/06 02:22:46;;;;;;;15.80;12.43;;;10.00;62.00;;;;;;5038556;28;20557;-54
2022/12/06 02:25:49;;;;;;;16.63;12.47;;;10.10;62.10;;;;;;5045885;28;20295;-57
2022/12/06 02:28:41;;;;;;;16.50;11.90;;;10.00;61.80;;;;;;5037511;28;20487;-56
2022/12/06 02:31:27;;;;;;;15.40;11.40;;;9.80;63.20;;;;;;5042472;28;20438;-54
2022/12/06 02:34:01;;;;;;;13.37;10.83;;;9.60;63.70;;;;;;5040577;28;20487;-57
2022/12/06 02:36:37;;;;;;;18.10;12.50;;;9.70;64.30;;;;;;5042339;28;20439;-57
2022/12/06 02:39:09;;;;;;;14.20;11.40;;;9.60;64.40;;;;;;5038068;28;20801;-57
2022/12/06 02:41:41;;;;;;;17.13;12.00;;;9.60;64.60;;;;;;5035835;28;20470;-56
2022/12/06 02:44:15;;;;;;;15.70;12.23;;;9.70;64.50;;;;;;5038944;28;20446;-56
2022/12/06 02:46:42;;;;;;;15.53;12.63;;;9.70;64.30;;;;;;5041746;28;20491;-55
2022/12/06 02:49:09;;;;;;;16.97;11.83;;;9.60;64.80;;;;;;5036673;28;20461;-56
2022/12/06 02:51:36;;;;;;;20.77;12.97;;;9.50;65.00;;;;;;5040554;28;20497;-57
2022/12/06 02:54:06;;;;;;;13.80;12.27;;;9.60;65.10;;;;;;5035368;28;20442;-55
2022/12/06 02:56:33;;;;;;;15.63;12.10;;;9.60;65.00;;;;;;5049074;28;20838;-56
2022/12/06 02:58:59;;;;;;;18.50;13.70;;;9.60;64.90;;;;;;5053488;28;20423;-57
2022/12/06 03:01:28;;;;;;;13.50;11.53;;;9.60;65.20;;;;;;5053857;28;20950;-55
2022/12/06 03:04:11;;;;;;;13.73;11.50;;;9.60;64.70;;;;;;5042975;28;20465;-55
2022/12/06 03:06:49;;;;;;;14.50;12.17;;;9.60;65.10;;;;;;5053333;28;20486;-57
2022/12/06 03:09:45;;;;;;;14.03;11.53;;;9.60;64.90;;;;;;5046218;28;20466;-55
2022/12/06 03:12:38;;;;;;;14.60;12.33;;;9.70;64.70;;;;;;5023283;28;20460;-55
2022/12/06 03:15:03;;;;;;;15.07;10.90;;;9.80;64.40;;;;;;5035234;28;20451;-55
2022/12/06 03:17:45;;;;;;;16.37;11.30;;;9.80;64.10;;;;;;5048784;28;20453;-58
2022/12/06 03:20:19;;;;;;;16.20;11.90;;;9.90;64.20;;;;;;5048338;28;20199;-58
2022/12/06 03:22:51;;;;;;;14.77;11.83;;;10.00;62.60;;;;;;5051090;28;20995;-57
2022/12/06 03:25:17;;;;;;;14.60;12.00;;;10.00;62.50;;;;;;5038252;28;20440;-56
2022/12/06 03:27:44;;;;;;;17.37;13.77;;;10.00;62.30;;;;;;5046427;28;20442;-55
2022/12/06 03:30:13;;;;;;;13.77;11.97;;;10.00;62.50;;;;;;5038757;28;20603;-57
2022/12/06 03:32:43;;;;;;;16.10;11.77;;;10.00;62.30;;;;;;5040954;28;20437;-55
2022/12/06 03:35:11;;;;;;;15.17;12.10;;;10.10;62.30;;;;;;5053226;28;20443;-55
2022/12/06 03:37:39;;;;;;;14.37;11.60;;;10.20;62.30;;;;;;5054864;28;20514;-56
2022/12/06 03:40:11;;;;;;;16.00;12.47;;;10.20;62.10;;;;;;5043625;28;20947;-56
2022/12/06 03:42:37;;;;;;;16.40;11.80;;;10.20;61.90;;;;;;5049017;28;20525;-57
2022/12/06 03:45:04;;;;;;;15.63;11.17;;;10.20;61.90;;;;;;5040984;28;20462;-55
2022/12/06 03:48:00;;;;;;;15.47;11.80;;;10.20;61.70;;;;;;5052367;28;20800;-56
2022/12/06 03:50:37;;;;;;;16.73;11.97;;;10.30;61.60;;;;;;5050272;28;20534;-59
2022/12/06 03:53:03;;;;;;;15.43;11.60;;;10.30;61.50;;;;;;5047994;28;20442;-58
2022/12/06 03:55:28;;;;;;;14.00;11.77;;;10.30;61.60;;;;;;5043822;28;20462;-55
2022/12/06 03:57:54;;;;;;;15.10;12.37;;;10.20;61.40;;;;;;5046529;28;20439;-55
2022/12/06 04:00:20;;;;;;;16.57;12.33;;;10.20;61.60;;;;;;5043691;28;20733;-56
2022/12/06 04:02:45;;;;;;;14.10;11.40;;;10.30;61.50;;;;;;5031790;28;20193;-55
2022/12/06 04:05:11;;;;;;;15.03;11.90;;;10.30;61.50;;;;;;5039993;28;20189;-55
2022/12/06 04:07:37;;;;;;;14.73;10.80;;;10.30;61.60;;;;;;5044933;28;20209;-56
2022/12/06 04:10:04;;;;;;;14.27;12.27;;;10.30;61.40;;;;;;5033660;28;20951;-58
2022/12/06 04:15:16;;;;;;;16.37;12.40;;;10.30;61.30;;;;;;5041615;28;20458;-54
2022/12/06 04:20:28;;;;;;;14.73;11.57;;;10.20;61.30;;;;;;5036283;28;20470;-55
2022/12/06 04:23:03;;;;;;;14.93;12.17;;;10.20;61.30;;;;;;5045539;28;20588;-57
2022/12/06 04:25:33;;;;;;;13.37;11.50;;;10.20;61.40;;;;;;5035884;28;20470;-58
2022/12/06 04:38:56;;;;;;;14.50;11.80;;;10.00;62.90;;;;;;5042374;28;20453;-57
2022/12/06 04:44:06;;;;;;;17.20;13.70;;;10.10;62.40;;;;;;5040247;28;20211;-57
2022/12/06 04:46:32;;;;;;;12.87;11.30;;;10.10;62.20;;;;;;5036699;28;20530;-57
2022/12/06 04:48:57;;;;;;;14.10;11.47;;;10.20;62.00;;;;;;5031374;28;20196;-58
2022/12/06 04:51:24;;;;;;;15.90;12.47;;;10.20;61.80;;;;;;5034444;28;20816;-58
2022/12/06 04:53:50;;;;;;;17.50;11.00;;;10.30;61.90;;;;;;5031674;28;20201;-55
2022/12/06 04:56:16;;;;;;;16.70;12.60;;;10.30;61.80;;;;;;5043394;28;20433;-57
2022/12/06 04:58:42;;;;;;;13.90;12.03;;;10.30;61.70;;;;;;5033437;28;20447;-58
2022/12/06 05:01:08;;;;;;;13.37;10.33;;;10.40;61.60;;;;;;5034481;28;20436;-55
2022/12/06 05:03:34;;;;;;;12.70;10.60;;;10.30;61.40;;;;;;5039904;28;20188;-56
2022/12/06 05:05:59;;;;;;;15.30;10.93;;;10.30;61.50;;;;;;5030649;28;20982;-56
2022/12/06 05:08:25;;;;;;;11.67;10.13;;;10.40;61.40;;;;;;5036187;28;20197;-56
2022/12/06 05:10:50;;;;;;;15.47;10.20;;;10.40;61.00;;;;;;5033681;28;20194;-56
2022/12/06 05:13:18;;;;;;;11.37;10.17;;;10.40;61.00;;;;;;5037839;28;20698;-56
2022/12/06 05:15:50;;;;;;;13.23;10.40;;;10.30;60.90;;;;;;5030039;28;20196;-57
2022/12/06 05:18:15;;;;;;;10.87;9.47;;;10.30;60.90;;;;;;5032925;28;20446;-56
2022/12/06 05:20:41;;;;;;;12.33;10.53;;;10.40;60.90;;;;;;5033234;28;20440;-56
2022/12/06 05:23:07;;;;;;;12.90;10.23;;;10.40;60.80;;;;;;5032000;28;20225;-56
2022/12/06 05:25:32;;;;;;;13.23;10.57;;;10.40;60.70;;;;;;5033428;28;20284;-56
2022/12/06 05:27:58;;;;;;;13.60;10.27;;;10.40;60.90;;;;;;5036549;28;20204;-56
2022/12/06 05:30:23;;;;;;;12.60;9.63;;;10.30;60.90;;;;;;5036623;28;20197;-56
2022/12/06 05:32:49;;;;;;;12.60;10.00;;;10.30;60.80;;;;;;5031259;28;22109;-57
2022/12/06 05:35:14;;;;;;;12.60;10.83;;;10.30;61.00;;;;;;5038307;28;20192;-57
2022/12/06 05:37:40;;;;;;;17.50;10.90;;;10.40;61.10;;;;;;5029101;28;20216;-57
2022/12/06 05:40:06;;;;;;;21.27;13.87;;;10.30;61.10;;;;;;5043049;28;20198;-56
2022/12/06 05:42:31;;;;;;;22.03;15.37;;;10.40;61.30;;;;;;5038886;28;20725;-59
2022/12/06 05:44:57;;;;;;;19.40;15.03;;;10.40;61.40;;;;;;5031141;28;20458;-57
2022/12/06 05:47:23;;;;;;;15.70;12.20;;;10.40;61.30;;;;;;5025490;28;20292;-58
2022/12/06 05:49:48;;;;;;;16.07;11.17;;;10.40;61.30;;;;;;5040240;28;20305;-58
2022/12/06 05:52:14;;;;;;;14.60;12.00;;;10.40;61.10;;;;;;5034369;28;20197;-58
2022/12/06 05:54:39;;;;;;;15.90;11.07;;;10.40;61.20;;;;;;5034516;28;20205;-58
2022/12/06 05:57:05;;;;;;;13.47;10.50;;;10.40;61.30;;;;;;5033920;28;20215;-59
2022/12/06 05:59:30;;;;;;;14.20;12.30;;;10.40;61.20;;;;;;5028968;28;20244;-58
2022/12/06 06:01:56;;;;;;;14.00;11.10;;;10.40;61.20;;;;;;5033790;28;20220;-58
2022/12/06 06:04:21;;;;;;;14.80;10.77;;;10.40;61.30;;;;;;5037649;28;20703;-59
2022/12/06 06:06:47;;;;;;;13.37;10.90;;;10.40;61.50;;;;;;5038619;28;20224;-57
2022/12/06 06:09:13;;;;;;;14.13;11.77;;;10.40;61.40;;;;;;5047714;28;20826;-58
2022/12/06 06:11:38;;;;;;;15.07;11.90;;;10.50;61.40;;;;;;5036362;28;20584;-58
2022/12/06 06:14:04;;;;;;;14.57;12.20;;;10.50;61.20;;;;;;5034290;28;20200;-58
2022/12/06 06:16:31;;;;;;;13.90;10.40;;;10.50;60.90;;;;;;5030657;28;20200;-59
2022/12/06 06:18:57;;;;;;;14.80;12.47;;;10.50;60.90;;;;;;5027688;28;20228;-59
2022/12/06 06:21:22;;;;;;;13.97;10.93;;;10.60;62.20;;;;;;5032222;28;20432;-59
2022/12/06 06:23:48;;;;;;;11.90;9.70;;;10.80;64.20;;;;;;5045050;28;20232;-59
2022/12/06 06:26:13;;;;;;;11.57;10.37;;;11.10;64.70;;;;;;5038738;28;20219;-59
2022/12/06 06:28:39;;;;;;;12.33;10.43;;;11.40;64.50;;;;;;5031348;28;20193;-59
2022/12/06 06:31:06;;;;;;;13.83;11.67;;;11.60;63.80;;;;;;5031139;28;20239;-57
2022/12/06 06:33:32;;;;;;;19.03;11.00;;;11.80;63.10;;;;;;5037531;28;20682;-58
2022/12/06 06:35:58;;;;;;;12.07;9.60;;;12.00;62.20;;;;;;5035404;28;20440;-58
2022/12/06 06:38:24;;;;;;;12.27;10.97;;;12.10;60.80;;;;;;5032205;28;20453;-58
2022/12/06 06:40:49;;;;;;;11.53;10.33;;;12.20;59.20;;;;;;5042744;28;20223;-58
2022/12/06 06:43:18;;;;;;;11.80;10.00;;;12.30;58.70;;;;;;5039280;28;20212;-58
2022/12/06 06:45:50;;;;;;;14.07;10.50;;;12.30;58.20;;;;;;5033984;28;20236;-58
2022/12/06 06:48:16;;;;;;;14.07;10.77;;;12.40;57.80;;;;;;5046459;28;20451;-58
2022/12/06 06:50:41;;;;;;;10.80;9.67;;;12.40;57.30;;;;;;5042603;28;20459;-58
2022/12/06 06:53:07;;;;;;;10.50;9.40;;;12.30;56.80;;;;;;5045467;28;20197;-58
2022/12/06 06:55:35;;;;;;;10.80;9.70;;;12.20;56.60;;;;;;5040696;28;20733;-58
2022/12/06 06:58:01;;;;;;;17.60;13.57;;;12.20;57.20;;;;;;5040076;28;20985;-58
2022/12/06 07:00:26;;;;;;;14.20;11.43;;;12.20;57.40;;;;;;5045419;28;20439;-58
2022/12/06 07:02:52;;;;;;;12.63;10.33;;;12.20;57.00;;;;;;5040598;28;20423;-58
2022/12/06 07:05:17;;;;;;;12.03;10.37;;;12.20;56.50;;;;;;5052083;28;20200;-58
2022/12/06 07:07:45;;;;;;;12.17;10.30;;;12.20;56.70;;;;;;5041247;28;20201;-58
2022/12/06 07:10:11;;;;;;;11.80;10.30;;;12.20;56.50;;;;;;5042974;28;20192;-58
2022/12/06 07:12:36;;;;;;;14.87;11.20;;;12.10;56.10;;;;;;5050476;28;20438;-58
2022/12/06 07:15:03;;;;;;;12.93;10.20;;;12.10;56.30;;;;;;5046761;28;20443;-58
2022/12/06 07:17:28;;;;;;;12.80;10.57;;;12.20;56.70;;;;;;5048251;28;20208;-58
2022/12/06 07:19:55;;;;;;;11.40;9.23;;;12.20;56.70;;;;;;5044612;28;20443;-58
2022/12/06 07:22:20;;;;;;;10.57;9.57;;;12.30;56.40;;;;;;5051802;28;20571;-58
2022/12/06 07:24:46;;;;;;;10.63;9.00;;;12.30;56.80;;;;;;5049647;28;20482;-58
2022/12/06 07:27:11;;;;;;;10.10;8.73;;;12.40;55.80;;;;;;5044174;28;20704;-58
2022/12/06 07:29:37;;;;;;;11.80;9.93;;;12.50;55.80;;;;;;5043767;28;20196;-58
2022/12/06 07:32:03;;;;;;;11.03;9.93;;;12.50;55.80;;;;;;5050969;28;20193;-58
2022/12/06 07:34:35;;;;;;;11.83;8.50;;;12.60;55.90;;;;;;5052613;28;20197;-60
2022/12/06 07:37:01;;;;;;;14.87;9.70;;;12.70;55.90;;;;;;5045425;28;20465;-58
2022/12/06 07:39:26;;;;;;;9.43;8.53;;;12.70;56.00;;;;;;5046493;28;20517;-58
2022/12/06 07:47:20;;;;;;;10.67;9.57;;;12.70;55.20;;;;;;5040541;28;20486;-58
2022/12/06 07:49:46;;;;;;;13.50;12.10;;;12.80;55.20;;;;;;5047796;28;20432;-58
2022/12/06 07:52:11;;;;;;;10.97;9.80;;;12.80;54.90;;;;;;5054309;28;20254;-58
2022/12/06 07:54:37;;;;;;;9.73;8.70;;;12.80;55.20;;;;;;5050767;28;20664;-58
2022/12/06 07:57:02;;;;;;;10.67;9.50;;;12.80;55.30;;;;;;5043881;28;20184;-58
2022/12/06 07:59:28;;;;;;;11.93;9.03;;;12.90;55.30;;;;;;5038718;28;20280;-58
2022/12/06 08:01:54;;;;;;;13.03;9.30;;;12.90;55.80;;;;;;5044083;28;20203;-58
2022/12/06 08:04:20;;;;;;;11.50;8.67;;;12.90;55.10;;;;;;5046916;28;20920;-58
2022/12/06 08:06:45;;;;;;;9.77;8.80;;;12.90;54.80;;;;;;5050512;28;20228;-58
2022/12/06 08:09:11;;;;;;;12.60;8.30;;;12.90;54.70;;;;;;5049932;28;20907;-58
2022/12/06 08:11:36;;;;;;;9.20;7.70;;;13.00;54.40;;;;;;5050771;28;20192;-58
2022/12/06 08:14:03;;;;;;;10.33;8.57;;;12.90;54.10;;;;;;5045047;28;20211;-58
2022/12/06 08:16:29;;;;;;;8.93;8.00;;;12.90;53.90;;;;;;5047340;28;20208;-58
2022/12/06 08:18:55;;;;;;;9.97;8.97;;;12.80;54.10;;;;;;5049370;28;20443;-58
2022/12/06 08:21:21;;;;;;;10.90;9.70;;;12.80;54.60;;;;;;5050480;28;20439;-58
2022/12/06 08:23:46;;;;;;;13.93;9.57;;;12.80;54.80;;;;;;5049835;28;20471;-58
2022/12/06 08:26:14;;;;;;;16.00;9.60;;;12.80;54.90;;;;;;5046269;28;20229;-58
2022/12/06 08:28:42;;;;;;;12.33;9.03;;;12.80;54.60;;;;;;5047983;28;20655;-58
2022/12/06 08:31:17;;;;;;;11.93;9.40;;;12.80;54.40;;;;;;5046137;28;21610;-58
2022/12/06 08:33:43;;;;;;;13.70;10.00;;;12.80;54.60;;;;;;5050378;28;20442;-58
2022/12/06 08:36:11;;;;;;;12.07;9.10;;;12.90;54.70;;;;;;5051581;28;20426;-59
2022/12/06 08:38:38;;;;;;;16.03;11.00;;;12.80;54.50;;;;;;5047659;28;20443;-58
2022/12/06 08:41:05;;;;;;;12.97;9.80;;;12.80;54.30;;;;;;5043004;28;20440;-58
2022/12/06 08:43:31;;;;;;;11.73;10.50;;;12.80;54.30;;;;;;5047950;28;21048;-58
2022/12/06 08:45:57;;;;;;;14.73;10.27;;;12.80;54.70;;;;;;5046195;28;20492;-56
2022/12/06 08:48:22;;;;;;;14.73;11.13;;;12.80;55.00;;;;;;5047696;28;20508;-56
2022/12/06 08:50:48;;;;;;;12.30;11.00;;;12.70;55.20;;;;;;5050380;28;20426;-57
2022/12/06 08:53:13;;;;;;;13.27;10.83;;;12.60;55.50;;;;;;5045787;28;20600;-57
2022/12/06 08:55:40;;;;;;;12.87;10.63;;;12.50;55.70;;;;;;5048652;28;20631;-56
2022/12/06 08:58:06;;;;;;;13.13;11.77;;;12.30;55.90;;;;;;5044602;28;20192;-56
2022/12/06 09:00:31;;;;;;;11.83;9.90;;;12.20;56.30;;;;;;5038801;28;20451;-58
2022/12/06 09:02:57;;;;;;;17.03;14.17;;;12.10;56.70;;;;;;5048428;28;20450;-57
2022/12/06 09:05:22;;;;;;;13.10;10.90;;;12.00;56.90;;;;;;5047474;28;20188;-55
2022/12/06 09:07:48;;;;;;;14.63;11.70;;;12.00;57.10;;;;;;5048485;28;20567;-58
2022/12/06 09:10:14;;;;;;;16.80;13.07;;;11.90;57.20;;;;;;5040086;28;20185;-57
2022/12/06 09:12:39;;;;;;;13.43;10.87;;;11.90;57.30;;;;;;5040669;28;20220;-57
2022/12/06 09:15:05;;;;;;;11.97;9.50;;;11.80;57.50;;;;;;5043378;28;20714;-56
2022/12/06 09:17:31;;;;;;;9.70;8.70;;;11.80;57.80;;;;;;5036935;28;20188;-57
2022/12/06 09:19:56;;;;;;;8.70;7.83;;;11.80;58.00;;;;;;5032677;28;20453;-59
2022/12/06 09:22:22;;;;;;;10.40;7.73;;;11.80;58.00;;;;;;5046175;28;20181;-59
2022/12/06 09:24:47;;;;;;;8.60;7.70;;;11.80;57.80;;;;;;5035351;28;20233;-59
2022/12/06 09:27:13;;;;;;;8.83;7.97;;;11.70;57.60;;;;;;5046000;28;20269;-59
2022/12/06 09:29:39;;;;;;;9.57;8.60;;;11.70;57.70;;;;;;5046435;28;20314;-59
2022/12/06 09:32:04;;;;;;;9.63;8.70;;;11.70;57.50;;;;;;5052320;28;20279;-59
2022/12/06 09:34:30;;;;;;;9.57;8.27;;;11.60;57.30;;;;;;5048541;28;20192;-58
2022/12/06 09:37:05;;;;;;;10.63;9.13;;;11.60;57.50;;;;;;5044484;28;20605;-58
2022/12/06 09:39:39;;;;;;;7.40;6.70;;;11.60;57.60;;;;;;5040836;28;20198;-58
2022/12/06 09:42:26;;;;;;;8.83;7.93;;;11.60;57.50;;;;;;5048096;28;20527;-58
2022/12/06 09:45:04;;;;;;;10.00;8.10;;;11.60;57.50;;;;;;5041218;28;20471;-58
2022/12/06 09:47:46;;;;;;;12.27;8.47;;;11.60;57.60;;;;;;5034100;28;20482;-58
2022/12/06 09:50:15;;;;;;;8.97;8.10;;;11.60;57.70;;;;;;5049217;28;20935;-58
2022/12/06 09:52:52;;;;;;;9.87;8.53;;;11.50;57.90;;;;;;5048599;28;20454;-58
2022/12/06 09:55:35;;;;;;;11.50;8.60;;;11.50;57.80;;;;;;5047854;28;20455;-58
2022/12/06 09:58:15;;;;;;;10.10;8.40;;;11.60;57.90;;;;;;5044302;28;20449;-58
2022/12/06 10:00:47;;;;;;;12.50;9.00;;;11.50;57.90;;;;;;5041944;28;20503;-58
2022/12/06 10:03:19;;;;;;;10.60;8.03;;;11.50;58.00;;;;;;5048941;28;20841;-56
2022/12/06 10:05:59;;;;;;;11.43;8.33;;;11.50;58.00;;;;;;5049698;28;20463;-56
2022/12/06 10:08:43;;;;;;;11.23;9.13;;;11.50;58.20;;;;;;5040748;28;20447;-57
2022/12/06 10:11:27;;;;;;;8.90;8.00;;;11.60;58.30;;;;;;5040817;28;20454;-57
2022/12/06 10:14:20;;;;;;;15.00;9.20;;;11.50;58.30;;;;;;5038729;28;20447;-57
2022/12/06 10:16:49;;;;;;;14.73;10.13;;;11.40;58.30;;;;;;5040155;28;20584;-57
2022/12/06 10:19:17;;;;;;;15.90;9.80;;;11.50;58.30;;;;;;5044432;28;20500;-57
2022/12/06 10:22:14;;;;;;;11.03;9.83;;;11.50;58.30;;;;;;5042549;28;20851;-57
2022/12/06 10:24:55;;;;;;;13.13;10.87;;;11.40;58.20;;;;;;5039552;28;20536;-57
2022/12/06 10:27:43;;;;;;;11.47;9.20;;;11.40;58.30;;;;;;5046671;28;20494;-57
2022/12/06 10:30:14;;;;;;;11.73;9.13;;;11.30;58.80;;;;;;5039104;28;20449;-57
2022/12/06 10:32:42;;;;;;;13.70;10.10;;;11.10;58.90;;;;;;5048544;28;20982;-58
2022/12/06 10:35:29;;;;;;;13.10;10.30;;;10.90;59.80;;;;;;5048745;28;22395;-57
2022/12/06 10:38:13;;;;;;;11.87;9.77;;;10.90;59.40;;;;;;5043827;28;20485;-57
2022/12/06 10:40:41;;;;;;;11.10;9.80;;;11.00;59.40;;;;;;5045018;28;20942;-57
2022/12/06 10:43:31;;;;;;;12.73;10.03;;;10.90;59.70;;;;;;5051983;28;20556;-57
2022/12/06 10:49:20;;;;;;;11.87;9.30;;;11.00;59.30;;;;;;5044871;28;20497;-57
2022/12/06 10:52:01;;;;;;;11.30;9.63;;;11.00;59.30;;;;;;5043786;28;20962;-57
2022/12/06 10:55:02;;;;;;;12.10;9.20;;;11.10;59.30;;;;;;5036892;28;20476;-57
2022/12/06 10:57:36;;;;;;;10.50;9.20;;;11.10;59.30;;;;;;5051297;28;21045;-57
2022/12/06 11:00:13;;;;;;;11.67;9.60;;;11.10;59.70;;;;;;5048144;28;20442;-57
2022/12/06 11:02:48;;;;;;;11.70;9.50;;;11.00;59.20;;;;;;5036612;28;20469;-57
2022/12/06 11:05:22;;;;;;;11.17;8.57;;;10.90;59.40;;;;;;5044472;28;20449;-57
2022/12/06 11:07:51;;;;;;;12.10;9.10;;;10.80;59.50;;;;;;5046037;28;20454;-58
2022/12/06 11:10:25;;;;;;;13.23;9.00;;;10.70;59.80;;;;;;5046632;28;20443;-57
2022/12/06 11:13:00;;;;;;;11.47;10.20;;;10.60;60.10;;;;;;5049116;28;20567;-57
2022/12/06 11:15:34;;;;;;;13.37;11.17;;;10.80;59.90;;;;;;5046023;28;20442;-57
2022/12/06 11:18:16;;;;;;;10.00;8.93;;;10.90;59.70;;;;;;5049333;28;21014;-57
2022/12/06 11:20:57;;;;;;;10.17;8.47;;;10.90;59.70;;;;;;5036859;28;20806;-57
2022/12/06 11:23:46;;;;;;;9.23;7.77;;;10.80;59.50;;;;;;5042711;28;20487;-57
2022/12/06 11:26:30;;;;;;;10.93;8.47;;;10.90;59.50;;;;;;5044953;28;20518;-57
2022/12/06 11:29:04;;;;;;;9.93;8.63;;;10.80;59.50;;;;;;5048155;28;20443;-57
2022/12/06 11:31:32;;;;;;;8.40;7.47;;;10.80;59.80;;;;;;5048156;28;20456;-57
2022/12/06 11:33:58;;;;;;;8.67;7.37;;;10.80;60.00;;;;;;5049318;28;20460;-57
2022/12/06 11:36:25;;;;;;;9.17;7.33;;;10.80;60.00;;;;;;5040159;28;20939;-58
2022/12/06 11:38:51;;;;;;;9.13;7.33;;;10.90;60.00;;;;;;5049988;28;20470;-57
2022/12/06 11:41:23;;;;;;;9.23;7.20;;;11.00;60.10;;;;;;5050220;28;20805;-57
2022/12/06 11:43:51;;;;;;;9.27;7.37;;;10.90;60.10;;;;;;5052586;28;20419;-57
2022/12/06 11:46:17;;;;;;;9.43;7.20;;;10.80;60.40;;;;;;5049282;28;20479;-57
2022/12/06 11:48:43;;;;;;;8.57;7.70;;;10.80;60.80;;;;;;5038245;28;20448;-57
2022/12/06 11:51:18;;;;;;;9.30;7.63;;;10.80;61.20;;;;;;5049208;28;20220;-57
2022/12/06 11:53:52;;;;;;;9.90;7.30;;;10.70;61.50;;;;;;5050925;28;20458;-57
2022/12/06 11:56:25;;;;;;;9.47;8.20;;;10.80;61.70;;;;;;5049908;28;20457;-57
2022/12/06 11:59:15;;;;;;;9.27;7.70;;;10.80;62.20;;;;;;5047399;28;20495;-57
2022/12/06 12:01:46;;;;;;;12.23;7.90;;;10.80;62.20;;;;;;5031135;28;20830;-57
2022/12/06 12:04:30;;;;;;;15.90;8.07;;;10.70;62.20;;;;;;5044646;28;20448;-57
2022/12/06 12:07:18;;;;;;;8.97;7.70;;;10.70;62.40;;;;;;5046639;28;20996;-57
2022/12/06 12:09:58;;;;;;;8.60;7.60;;;10.80;62.70;;;;;;5050759;28;20451;-57
2022/12/06 12:15:26;;;;;;;7.47;6.47;;;10.60;63.30;;;;;;5015416;28;20512;-57
2022/12/06 12:17:54;;;;;;;9.00;6.00;;;10.60;63.20;;;;;;5045501;28;20980;-58
2022/12/06 12:20:26;;;;;;;9.10;5.80;;;10.70;63.20;;;;;;5042641;28;20452;-57
2022/12/06 12:23:02;;;;;;;6.53;5.23;;;10.80;62.90;;;;;;5042552;28;20431;-57
2022/12/06 12:25:33;;;;;;;5.53;4.43;;;10.80;62.60;;;;;;5043540;28;20481;-57
2022/12/06 12:28:00;;;;;;;7.60;4.37;;;10.70;62.80;;;;;;5049543;28;20475;-57
2022/12/06 12:30:36;;;;;;;6.20;5.20;;;10.40;63.60;;;;;;5047327;28;20954;-57
2022/12/06 12:33:04;;;;;;;7.03;5.60;;;10.30;64.20;;;;;;5036475;28;20489;-58
2022/12/06 12:35:31;;;;;;;5.10;4.60;;;10.40;64.30;;;;;;5047725;28;20496;-57
2022/12/06 12:38:03;;;;;;;5.13;4.53;;;10.40;64.10;;;;;;5045239;28;20512;-57
2022/12/06 12:40:36;;;;;;;6.30;4.63;;;10.40;63.80;;;;;;5040192;28;20452;-57
2022/12/06 12:43:09;;;;;;;4.57;4.13;;;10.50;63.40;;;;;;5034926;28;20772;-57
2022/12/06 12:45:36;;;;;;;6.93;5.10;;;10.60;63.40;;;;;;5036921;28;20444;-57
2022/12/06 12:48:19;;;;;;;6.37;5.43;;;10.50;63.40;;;;;;5049037;28;20459;-57
2022/12/06 12:51:03;;;;;;;6.70;5.10;;;10.40;63.60;;;;;;5044529;28;20450;-57
2022/12/06 12:53:41;;;;;;;5.40;4.90;;;10.50;63.10;;;;;;5041210;28;20455;-57
2022/12/06 12:56:18;;;;;;;7.17;4.97;;;10.50;62.80;;;;;;5045979;28;20474;-57
2022/12/06 12:58:47;;;;;;;5.57;5.07;;;10.50;62.70;;;;;;5035242;28;20505;-57
2022/12/06 13:01:38;;;;;;;7.07;4.97;;;10.10;62.20;;;;;;5036588;28;20502;-58
2022/12/06 13:04:17;;;;;;;5.10;4.67;;;10.00;62.90;;;;;;5037246;28;21839;-58
2022/12/06 13:07:06;;;;;;;6.97;4.90;;;10.10;63.20;;;;;;5045779;28;20491;-58
2022/12/06 13:09:37;;;;;;;8.23;5.20;;;10.20;62.70;;;;;;5033083;28;21414;-58
2022/12/06 13:12:11;;;;;;;5.20;4.50;;;10.20;62.40;;;;;;5042961;28;21278;-58
2022/12/06 13:14:51;;;;;;;6.20;4.17;;;10.30;62.40;;;;;;5045134;28;20970;-58
2022/12/06 13:17:17;;;;;;;4.83;3.90;;;10.20;62.20;;;;;;5042561;28;20447;-58
2022/12/06 13:19:46;;;;;;;4.77;4.27;;;10.20;62.20;;;;;;5039963;28;20427;-58
2022/12/06 13:22:19;;;;;;;4.30;3.90;;;10.40;61.90;;;;;;5043739;28;20435;-58